sensor_id;sensor_type;location;lat;lon;timestamp;pressure;altitude;pressure_sealevel;temperature;humidity
23118;BME280;11728;50.624;6.014;2022-09-09T00:00:53;97619.41;;;15.21;94.55
23118;BME280;11728;50.624;6.014;2022-09-09T00:06:33;97617.06;;;15.15;95.64
23118;BME280;11728;50.624;6.014;2022-09-09T00:17:02;97611.34;;;15.05;96.24
23118;BME280;11728;50.624;6.014;2022-09-09T00:22:17;97605.00;;;15.08;96.21
23118;BME280;11728;50.624;6.014;2022-09-09T00:27:28;97602.44;;;15.06;96.86
23118;BME280;11728;50.624;6.014;2022-09-09T00:32:30;97611.81;;;15.13;96.02
23118;BME280;11728;50.624;6.014;2022-09-09T00:37:32;97600.41;;;15.11;96.49
23118;BME280;11728;50.624;6.014;2022-09-09T00:42:42;97601.97;;;15.15;97.16
23118;BME280;11728;50.624;6.014;2022-09-09T00:47:46;97605.22;;;15.20;97.61
23118;BME280;11728;50.624;6.014;2022-09-09T00:58:02;97594.84;;;15.33;97.94
23118;BME280;11728;50.624;6.014;2022-09-09T01:03:08;97610.50;;;15.38;97.84
23118;BME280;11728;50.624;6.014;2022-09-09T01:13:45;97604.13;;;15.58;98.24
23118;BME280;11728;50.624;6.014;2022-09-09T01:18:51;97604.41;;;15.69;98.38
23118;BME280;11728;50.624;6.014;2022-09-09T01:24:17;97608.38;;;15.77;98.49
23118;BME280;11728;50.624;6.014;2022-09-09T01:29:30;97607.69;;;15.89;98.11
23118;BME280;11728;50.624;6.014;2022-09-09T01:34:33;97597.50;;;15.97;98.14
23118;BME280;11728;50.624;6.014;2022-09-09T01:39:38;97596.56;;;15.98;98.29
23118;BME280;11728;50.624;6.014;2022-09-09T01:44:43;97596.75;;;15.95;98.37
23118;BME280;11728;50.624;6.014;2022-09-09T01:49:44;97591.72;;;15.89;98.49
23118;BME280;11728;50.624;6.014;2022-09-09T01:54:53;97597.25;;;15.86;98.63
23118;BME280;11728;50.624;6.014;2022-09-09T02:00:07;97598.72;;;15.92;98.65
23118;BME280;11728;50.624;6.014;2022-09-09T02:05:44;97589.50;;;15.97;98.50
23118;BME280;11728;50.624;6.014;2022-09-09T02:21:13;97574.66;;;16.09;98.00
23118;BME280;11728;50.624;6.014;2022-09-09T02:26:16;97567.19;;;16.00;98.19
23118;BME280;11728;50.624;6.014;2022-09-09T02:31:24;97572.94;;;15.92;98.40
23118;BME280;11728;50.624;6.014;2022-09-09T02:36:34;97577.81;;;15.84;98.52
23118;BME280;11728;50.624;6.014;2022-09-09T02:41:38;97577.03;;;15.82;98.56
23118;BME280;11728;50.624;6.014;2022-09-09T02:47:03;97569.38;;;15.76;99.22
23118;BME280;11728;50.624;6.014;2022-09-09T02:52:08;97565.19;;;15.72;99.32
23118;BME280;11728;50.624;6.014;2022-09-09T02:57:15;97566.13;;;15.71;99.48
23118;BME280;11728;50.624;6.014;2022-09-09T03:02:20;97569.56;;;15.73;99.73
23118;BME280;11728;50.624;6.014;2022-09-09T03:07:27;97565.78;;;15.77;99.27
23118;BME280;11728;50.624;6.014;2022-09-09T03:12:29;97558.97;;;15.72;99.26
23118;BME280;11728;50.624;6.014;2022-09-09T03:17:30;97566.28;;;15.68;99.28
23118;BME280;11728;50.624;6.014;2022-09-09T03:22:31;97567.41;;;15.64;99.12
23118;BME280;11728;50.624;6.014;2022-09-09T03:27:34;97567.84;;;15.72;99.14
23118;BME280;11728;50.624;6.014;2022-09-09T03:32:35;97561.16;;;15.81;98.90
23118;BME280;11728;50.624;6.014;2022-09-09T03:37:35;97556.84;;;15.78;98.44
23118;BME280;11728;50.624;6.014;2022-09-09T03:42:37;97566.81;;;15.75;98.61
23118;BME280;11728;50.624;6.014;2022-09-09T03:47:38;97563.03;;;15.79;98.24
23118;BME280;11728;50.624;6.014;2022-09-09T03:52:41;97570.25;;;15.77;98.14
23118;BME280;11728;50.624;6.014;2022-09-09T03:57:48;97561.41;;;15.76;97.99
23118;BME280;11728;50.624;6.014;2022-09-09T04:02:50;97557.94;;;15.74;98.01
23118;BME280;11728;50.624;6.014;2022-09-09T04:07:55;97563.22;;;15.76;97.89
23118;BME280;11728;50.624;6.014;2022-09-09T04:12:55;97558.38;;;15.82;97.91
23118;BME280;11728;50.624;6.014;2022-09-09T04:17:56;97550.25;;;15.85;97.68
23118;BME280;11728;50.624;6.014;2022-09-09T04:22:57;97550.34;;;15.84;97.82
23118;BME280;11728;50.624;6.014;2022-09-09T04:27:57;97552.47;;;15.77;97.52
23118;BME280;11728;50.624;6.014;2022-09-09T04:32:58;97560.88;;;15.70;97.57
23118;BME280;11728;50.624;6.014;2022-09-09T04:37:59;97566.97;;;15.72;97.68
23118;BME280;11728;50.624;6.014;2022-09-09T04:43:02;97572.59;;;15.83;97.10
23118;BME280;11728;50.624;6.014;2022-09-09T04:48:06;97578.41;;;15.89;96.85
23118;BME280;11728;50.624;6.014;2022-09-09T04:53:07;97574.91;;;15.73;96.89
23118;BME280;11728;50.624;6.014;2022-09-09T04:58:10;97568.69;;;15.57;97.37
23118;BME280;11728;50.624;6.014;2022-09-09T05:03:11;97571.22;;;15.43;97.66
23118;BME280;11728;50.624;6.014;2022-09-09T05:08:13;97580.63;;;15.34;97.68
23118;BME280;11728;50.624;6.014;2022-09-09T05:13:13;97578.19;;;15.29;97.59
23118;BME280;11728;50.624;6.014;2022-09-09T05:18:14;97586.63;;;15.37;97.57
23118;BME280;11728;50.624;6.014;2022-09-09T05:23:15;97587.53;;;15.53;96.91
23118;BME280;11728;50.624;6.014;2022-09-09T05:28:15;97591.34;;;15.64;95.82
23118;BME280;11728;50.624;6.014;2022-09-09T05:33:16;97584.66;;;15.73;95.83
23118;BME280;11728;50.624;6.014;2022-09-09T05:38:16;97584.16;;;15.82;95.39
23118;BME280;11728;50.624;6.014;2022-09-09T05:43:19;97579.44;;;15.87;95.16
23118;BME280;11728;50.624;6.014;2022-09-09T05:48:20;97570.97;;;15.96;94.58
23118;BME280;11728;50.624;6.014;2022-09-09T05:53:21;97575.34;;;16.12;93.63
23118;BME280;11728;50.624;6.014;2022-09-09T05:58:22;97568.75;;;16.34;92.62
23118;BME280;11728;50.624;6.014;2022-09-09T06:03:24;97565.63;;;16.26;92.58
23118;BME280;11728;50.624;6.014;2022-09-09T06:08:26;97577.50;;;16.21;92.38
23118;BME280;11728;50.624;6.014;2022-09-09T06:13:27;97569.41;;;16.69;90.55
23118;BME280;11728;50.624;6.014;2022-09-09T06:18:28;97574.75;;;16.69;89.20
23118;BME280;11728;50.624;6.014;2022-09-09T06:23:30;97577.66;;;16.64;89.56
23118;BME280;11728;50.624;6.014;2022-09-09T06:28:33;97570.00;;;17.46;88.54
23118;BME280;11728;50.624;6.014;2022-09-09T06:33:36;97562.03;;;18.14;83.18
23118;BME280;11728;50.624;6.014;2022-09-09T06:38:41;97560.94;;;18.04;83.25
23118;BME280;11728;50.624;6.014;2022-09-09T06:43:44;97562.94;;;18.01;82.22
23118;BME280;11728;50.624;6.014;2022-09-09T06:48:46;97547.50;;;17.64;83.76
23118;BME280;11728;50.624;6.014;2022-09-09T06:53:54;97549.97;;;17.53;84.39
23118;BME280;11728;50.624;6.014;2022-09-09T06:58:57;97549.63;;;17.73;84.29
23118;BME280;11728;50.624;6.014;2022-09-09T07:04:03;97550.91;;;18.22;82.72
23118;BME280;11728;50.624;6.014;2022-09-09T07:09:09;97554.72;;;19.48;77.64
23118;BME280;11728;50.624;6.014;2022-09-09T07:14:13;97555.66;;;19.22;76.41
23118;BME280;11728;50.624;6.014;2022-09-09T07:19:15;97553.75;;;18.98;76.43
23118;BME280;11728;50.624;6.014;2022-09-09T07:24:17;97559.84;;;18.61;77.01
23118;BME280;11728;50.624;6.014;2022-09-09T07:29:18;97566.94;;;18.22;77.37
23118;BME280;11728;50.624;6.014;2022-09-09T07:34:18;97565.22;;;18.21;77.53
23118;BME280;11728;50.624;6.014;2022-09-09T07:39:19;97571.38;;;19.14;73.64
23118;BME280;11728;50.624;6.014;2022-09-09T07:44:24;97564.34;;;20.84;67.93
23118;BME280;11728;50.624;6.014;2022-09-09T07:49:32;97557.34;;;21.39;65.54
23118;BME280;11728;50.624;6.014;2022-09-09T07:54:33;97571.72;;;21.72;63.59
23118;BME280;11728;50.624;6.014;2022-09-09T07:59:37;97571.72;;;20.57;66.45
23118;BME280;11728;50.624;6.014;2022-09-09T08:04:38;97574.66;;;19.94;67.81
23118;BME280;11728;50.624;6.014;2022-09-09T08:09:39;97583.22;;;19.49;68.51
23118;BME280;11728;50.624;6.014;2022-09-09T08:14:49;97583.31;;;19.23;69.75
23118;BME280;11728;50.624;6.014;2022-09-09T08:19:50;97598.94;;;19.02;70.64
23118;BME280;11728;50.624;6.014;2022-09-09T08:24:56;97599.00;;;18.88;71.24
23118;BME280;11728;50.624;6.014;2022-09-09T08:29:57;97601.94;;;18.71;71.65
23118;BME280;11728;50.624;6.014;2022-09-09T08:34:57;97614.88;;;18.65;72.30
23118;BME280;11728;50.624;6.014;2022-09-09T08:39:58;97620.59;;;18.59;72.41
23118;BME280;11728;50.624;6.014;2022-09-09T08:45:12;97609.31;;;18.94;71.76
23118;BME280;11728;50.624;6.014;2022-09-09T08:55:50;97618.84;;;19.12;70.72
23118;BME280;11728;50.624;6.014;2022-09-09T09:11:20;97603.69;;;19.50;69.45
23118;BME280;11728;50.624;6.014;2022-09-09T09:21:43;97591.13;;;23.79;58.56
23118;BME280;11728;50.624;6.014;2022-09-09T09:26:47;97596.44;;;25.47;54.07
23118;BME280;11728;50.624;6.014;2022-09-09T09:31:56;97588.97;;;24.92;52.11
23118;BME280;11728;50.624;6.014;2022-09-09T09:37:00;97594.00;;;24.07;52.78
23118;BME280;11728;50.624;6.014;2022-09-09T09:42:10;97596.03;;;23.33;52.16
23118;BME280;11728;50.624;6.014;2022-09-09T09:47:20;97610.56;;;23.00;52.66
23118;BME280;11728;50.624;6.014;2022-09-09T09:52:33;97596.56;;;22.74;53.61
23118;BME280;11728;50.624;6.014;2022-09-09T09:57:36;97613.09;;;21.93;55.52
23118;BME280;11728;50.624;6.014;2022-09-09T10:02:43;97623.16;;;21.10;57.46
23118;BME280;11728;50.624;6.014;2022-09-09T10:08:05;97615.13;;;20.87;58.73
23118;BME280;11728;50.624;6.014;2022-09-09T10:13:13;97618.16;;;21.40;58.70
23118;BME280;11728;50.624;6.014;2022-09-09T10:29:11;97609.16;;;22.85;54.22
23118;BME280;11728;50.624;6.014;2022-09-09T10:40:04;97622.75;;;20.81;60.51
23118;BME280;11728;50.624;6.014;2022-09-09T10:50:38;97620.97;;;20.69;62.02
23118;BME280;11728;50.624;6.014;2022-09-09T10:56:01;97613.88;;;21.38;60.36
23118;BME280;11728;50.624;6.014;2022-09-09T11:01:16;97607.19;;;21.77;57.89
23118;BME280;11728;50.624;6.014;2022-09-09T11:06:21;97606.72;;;21.49;57.51
23118;BME280;11728;50.624;6.014;2022-09-09T11:11:32;97621.34;;;21.11;58.52
23118;BME280;11728;50.624;6.014;2022-09-09T11:21:47;97638.75;;;19.84;69.96
23118;BME280;11728;50.624;6.014;2022-09-09T11:27:01;97652.22;;;19.58;73.70
23118;BME280;11728;50.624;6.014;2022-09-09T11:37:47;97640.00;;;20.53;74.25
23118;BME280;11728;50.624;6.014;2022-09-09T11:48:04;97632.59;;;21.73;70.64
23118;BME280;11728;50.624;6.014;2022-09-09T12:03:42;97627.06;;;22.42;65.84
23118;BME280;11728;50.624;6.014;2022-09-09T12:08:48;97618.25;;;22.29;65.86
23118;BME280;11728;50.624;6.014;2022-09-09T12:13:57;97605.78;;;23.45;61.61
23118;BME280;11728;50.624;6.014;2022-09-09T12:19:16;97599.69;;;25.41;56.75
23118;BME280;11728;50.624;6.014;2022-09-09T12:24:59;97603.41;;;25.78;55.31
23118;BME280;11728;50.624;6.014;2022-09-09T12:30:09;97609.84;;;25.00;56.22
23118;BME280;11728;50.624;6.014;2022-09-09T12:35:27;97592.31;;;25.24;52.65
23118;BME280;11728;50.624;6.014;2022-09-09T12:40:31;97590.03;;;26.32;50.42
23118;BME280;11728;50.624;6.014;2022-09-09T12:45:33;97591.81;;;26.86;49.42
23118;BME280;11728;50.624;6.014;2022-09-09T12:50:42;97596.34;;;25.00;50.89
23118;BME280;11728;50.624;6.014;2022-09-09T12:55:56;97593.88;;;23.48;54.78
23118;BME280;11728;50.624;6.014;2022-09-09T13:00:57;97618.25;;;22.07;61.02
23118;BME280;11728;50.624;6.014;2022-09-09T13:05:59;97611.53;;;21.33;65.17
23118;BME280;11728;50.624;6.014;2022-09-09T13:11:17;97607.41;;;21.06;69.48
23118;BME280;11728;50.624;6.014;2022-09-09T13:16:26;97601.34;;;22.16;70.39
23118;BME280;11728;50.624;6.014;2022-09-09T13:21:33;97595.34;;;23.52;67.50
23118;BME280;11728;50.624;6.014;2022-09-09T13:26:35;97590.91;;;23.71;63.30
23118;BME280;11728;50.624;6.014;2022-09-09T13:31:36;97591.00;;;23.09;64.96
23118;BME280;11728;50.624;6.014;2022-09-09T13:36:37;97597.22;;;22.34;66.67
23118;BME280;11728;50.624;6.014;2022-09-09T13:41:45;97591.06;;;21.77;68.51
23118;BME280;11728;50.624;6.014;2022-09-09T13:46:46;97583.13;;;22.20;66.95
23118;BME280;11728;50.624;6.014;2022-09-09T13:51:49;97584.25;;;21.50;70.75
23118;BME280;11728;50.624;6.014;2022-09-09T13:56:50;97601.75;;;20.98;71.82
23118;BME280;11728;50.624;6.014;2022-09-09T14:01:51;97607.91;;;20.52;72.74
23118;BME280;11728;50.624;6.014;2022-09-09T14:06:53;97590.84;;;20.17;74.96
23118;BME280;11728;50.624;6.014;2022-09-09T14:11:53;97603.28;;;20.06;75.70
23118;BME280;11728;50.624;6.014;2022-09-09T14:16:55;97614.44;;;20.00;77.26
23118;BME280;11728;50.624;6.014;2022-09-09T14:21:55;97631.78;;;19.82;78.04
23118;BME280;11728;50.624;6.014;2022-09-09T14:26:56;97619.22;;;19.45;79.34
23118;BME280;11728;50.624;6.014;2022-09-09T14:31:57;97629.22;;;18.90;81.48
23118;BME280;11728;50.624;6.014;2022-09-09T14:36:58;97635.81;;;18.58;83.43
23118;BME280;11728;50.624;6.014;2022-09-09T14:41:58;97632.41;;;18.43;84.91
23118;BME280;11728;50.624;6.014;2022-09-09T14:46:59;97622.56;;;18.69;84.77
23118;BME280;11728;50.624;6.014;2022-09-09T14:52:00;97618.22;;;19.07;84.35
23118;BME280;11728;50.624;6.014;2022-09-09T14:57:01;97611.59;;;19.39;84.03
23118;BME280;11728;50.624;6.014;2022-09-09T15:02:02;97621.16;;;19.68;83.41
23118;BME280;11728;50.624;6.014;2022-09-09T15:07:04;97614.53;;;20.23;82.99
23118;BME280;11728;50.624;6.014;2022-09-09T15:12:04;97610.44;;;20.30;81.11
23118;BME280;11728;50.624;6.014;2022-09-09T15:17:05;97610.44;;;20.17;80.82
23118;BME280;11728;50.624;6.014;2022-09-09T15:22:06;97604.53;;;19.88;81.00
23118;BME280;11728;50.624;6.014;2022-09-09T15:27:06;97614.84;;;19.69;81.40
23118;BME280;11728;50.624;6.014;2022-09-09T15:32:07;97607.00;;;19.41;81.24
23118;BME280;11728;50.624;6.014;2022-09-09T15:37:10;97612.97;;;19.06;82.61
23118;BME280;11728;50.624;6.014;2022-09-09T15:42:13;97606.81;;;18.91;82.99
23118;BME280;11728;50.624;6.014;2022-09-09T15:47:13;97614.25;;;18.74;84.12
23118;BME280;11728;50.624;6.014;2022-09-09T15:52:14;97616.38;;;18.69;84.32
23118;BME280;11728;50.624;6.014;2022-09-09T15:57:14;97615.47;;;18.56;84.94
23118;BME280;11728;50.624;6.014;2022-09-09T16:02:15;97617.22;;;18.69;84.37
23118;BME280;11728;50.624;6.014;2022-09-09T16:07:15;97615.56;;;18.81;84.17
23118;BME280;11728;50.624;6.014;2022-09-09T16:12:16;97604.75;;;19.09;83.09
23118;BME280;11728;50.624;6.014;2022-09-09T16:17:16;97593.28;;;19.33;82.67
23118;BME280;11728;50.624;6.014;2022-09-09T16:22:19;97593.91;;;19.24;82.39
23118;BME280;11728;50.624;6.014;2022-09-09T16:27:20;97603.50;;;19.14;82.80
23118;BME280;11728;50.624;6.014;2022-09-09T16:32:20;97607.53;;;19.07;82.64
23118;BME280;11728;50.624;6.014;2022-09-09T16:37:20;97606.03;;;19.03;82.94
23118;BME280;11728;50.624;6.014;2022-09-09T16:42:21;97612.97;;;19.06;82.48
23118;BME280;11728;50.624;6.014;2022-09-09T16:47:21;97613.72;;;18.95;82.50
23118;BME280;11728;50.624;6.014;2022-09-09T16:52:22;97619.78;;;18.85;82.49
23118;BME280;11728;50.624;6.014;2022-09-09T16:57:22;97635.66;;;18.74;83.18
23118;BME280;11728;50.624;6.014;2022-09-09T17:02:23;97649.72;;;18.63;83.53
23118;BME280;11728;50.624;6.014;2022-09-09T17:07:25;97669.41;;;18.62;84.24
23118;BME280;11728;50.624;6.014;2022-09-09T17:12:25;97673.44;;;18.55;84.46
23118;BME280;11728;50.624;6.014;2022-09-09T17:17:26;97680.72;;;18.40;85.15
23118;BME280;11728;50.624;6.014;2022-09-09T17:22:26;97692.69;;;18.34;84.91
23118;BME280;11728;50.624;6.014;2022-09-09T17:27:27;97710.41;;;18.21;85.90
23118;BME280;11728;50.624;6.014;2022-09-09T17:32:27;97696.69;;;17.70;88.40
23118;BME280;11728;50.624;6.014;2022-09-09T17:37:29;97711.41;;;17.48;90.38
23118;BME280;11728;50.624;6.014;2022-09-09T17:42:29;97709.28;;;17.39;90.91
23118;BME280;11728;50.624;6.014;2022-09-09T17:47:30;97708.34;;;17.24;91.22
23118;BME280;11728;50.624;6.014;2022-09-09T17:52:31;97714.56;;;17.25;91.69
23118;BME280;11728;50.624;6.014;2022-09-09T17:57:31;97710.06;;;17.25;92.03
23118;BME280;11728;50.624;6.014;2022-09-09T18:02:32;97712.31;;;17.17;92.42
23118;BME280;11728;50.624;6.014;2022-09-09T18:07:32;97716.97;;;17.14;92.47
23118;BME280;11728;50.624;6.014;2022-09-09T18:12:33;97714.47;;;17.11;92.81
23118;BME280;11728;50.624;6.014;2022-09-09T18:17:34;97723.50;;;17.08;93.09
23118;BME280;11728;50.624;6.014;2022-09-09T18:22:34;97718.16;;;17.08;93.54
23118;BME280;11728;50.624;6.014;2022-09-09T18:27:35;97725.59;;;17.03;93.68
23118;BME280;11728;50.624;6.014;2022-09-09T18:32:35;97734.38;;;17.05;93.92
23118;BME280;11728;50.624;6.014;2022-09-09T18:37:36;97737.19;;;17.02;93.93
23118;BME280;11728;50.624;6.014;2022-09-09T18:42:37;97749.44;;;17.06;93.96
23118;BME280;11728;50.624;6.014;2022-09-09T18:47:37;97744.84;;;17.08;93.98
23118;BME280;11728;50.624;6.014;2022-09-09T18:52:39;97737.28;;;17.01;94.57
23118;BME280;11728;50.624;6.014;2022-09-09T18:57:39;97731.53;;;16.93;94.89
23118;BME280;11728;50.624;6.014;2022-09-09T19:02:40;97734.09;;;16.94;94.96
23118;BME280;11728;50.624;6.014;2022-09-09T19:07:40;97743.84;;;16.95;94.93
23118;BME280;11728;50.624;6.014;2022-09-09T19:12:41;97748.22;;;16.81;95.00
23118;BME280;11728;50.624;6.014;2022-09-09T19:17:41;97756.91;;;16.69;95.84
23118;BME280;11728;50.624;6.014;2022-09-09T19:22:42;97768.00;;;16.62;96.32
23118;BME280;11728;50.624;6.014;2022-09-09T19:27:42;97766.00;;;16.50;96.65
23118;BME280;11728;50.624;6.014;2022-09-09T19:32:43;97772.69;;;16.41;96.68
23118;BME280;11728;50.624;6.014;2022-09-09T19:37:43;97780.94;;;16.37;96.57
23118;BME280;11728;50.624;6.014;2022-09-09T19:42:44;97785.56;;;16.33;96.92
23118;BME280;11728;50.624;6.014;2022-09-09T19:47:45;97792.28;;;16.40;97.11
23118;BME280;11728;50.624;6.014;2022-09-09T19:52:45;97797.97;;;16.50;97.04
23118;BME280;11728;50.624;6.014;2022-09-09T19:57:46;97798.63;;;16.55;96.99
23118;BME280;11728;50.624;6.014;2022-09-09T20:02:46;97803.59;;;16.61;96.90
23118;BME280;11728;50.624;6.014;2022-09-09T20:07:50;97813.47;;;16.59;96.54
23118;BME280;11728;50.624;6.014;2022-09-09T20:12:50;97805.03;;;16.51;96.26
23118;BME280;11728;50.624;6.014;2022-09-09T20:17:51;97811.03;;;16.39;96.32
23118;BME280;11728;50.624;6.014;2022-09-09T20:22:52;97809.47;;;16.35;96.64
23118;BME280;11728;50.624;6.014;2022-09-09T20:27:52;97810.78;;;16.26;96.98
23118;BME280;11728;50.624;6.014;2022-09-09T20:32:53;97806.13;;;16.15;96.83
23118;BME280;11728;50.624;6.014;2022-09-09T20:37:53;97803.28;;;16.01;97.46
23118;BME280;11728;50.624;6.014;2022-09-09T20:42:54;97808.06;;;15.94;97.93
23118;BME280;11728;50.624;6.014;2022-09-09T20:47:54;97798.97;;;15.98;97.83
23118;BME280;11728;50.624;6.014;2022-09-09T20:52:56;97801.97;;;16.09;97.52
23118;BME280;11728;50.624;6.014;2022-09-09T20:57:57;97798.88;;;16.16;97.32
23118;BME280;11728;50.624;6.014;2022-09-09T21:02:57;97796.66;;;16.24;97.04
23118;BME280;11728;50.624;6.014;2022-09-09T21:07:59;97801.91;;;16.26;96.89
23118;BME280;11728;50.624;6.014;2022-09-09T21:13:00;97803.44;;;16.31;97.11
23118;BME280;11728;50.624;6.014;2022-09-09T21:18:01;97814.78;;;16.35;97.31
23118;BME280;11728;50.624;6.014;2022-09-09T21:23:01;97813.06;;;16.34;97.64
23118;BME280;11728;50.624;6.014;2022-09-09T21:28:03;97811.50;;;16.30;98.02
23118;BME280;11728;50.624;6.014;2022-09-09T21:33:04;97816.34;;;16.22;98.22
23118;BME280;11728;50.624;6.014;2022-09-09T21:38:20;97823.97;;;16.13;98.39
23118;BME280;11728;50.624;6.014;2022-09-09T21:43:20;97818.09;;;16.06;98.29
23118;BME280;11728;50.624;6.014;2022-09-09T21:48:22;97823.81;;;15.99;98.05
23118;BME280;11728;50.624;6.014;2022-09-09T21:53:25;97830.16;;;15.96;97.71
23118;BME280;11728;50.624;6.014;2022-09-09T21:58:25;97828.72;;;15.89;97.63
23118;BME280;11728;50.624;6.014;2022-09-09T22:03:26;97828.72;;;15.89;97.72
23118;BME280;11728;50.624;6.014;2022-09-09T22:08:28;97808.53;;;15.85;97.56
23118;BME280;11728;50.624;6.014;2022-09-09T22:13:28;97810.50;;;15.82;97.38
23118;BME280;11728;50.624;6.014;2022-09-09T22:18:29;97809.19;;;15.73;97.47
23118;BME280;11728;50.624;6.014;2022-09-09T22:23:31;97807.69;;;15.68;98.25
23118;BME280;11728;50.624;6.014;2022-09-09T22:28:33;97802.13;;;15.72;98.10
23118;BME280;11728;50.624;6.014;2022-09-09T22:33:33;97792.09;;;15.77;98.34
23118;BME280;11728;50.624;6.014;2022-09-09T22:38:35;97791.78;;;15.83;98.04
23118;BME280;11728;50.624;6.014;2022-09-09T22:43:35;97786.63;;;15.80;98.05
23118;BME280;11728;50.624;6.014;2022-09-09T22:48:37;97796.47;;;15.78;98.57
23118;BME280;11728;50.624;6.014;2022-09-09T22:53:39;97791.00;;;15.81;98.39
23118;BME280;11728;50.624;6.014;2022-09-09T22:58:40;97794.66;;;15.79;98.15
23118;BME280;11728;50.624;6.014;2022-09-09T23:03:41;97805.25;;;15.80;98.39
23118;BME280;11728;50.624;6.014;2022-09-09T23:08:45;97796.97;;;15.86;98.08
23118;BME280;11728;50.624;6.014;2022-09-09T23:13:49;97801.34;;;15.87;98.15
23118;BME280;11728;50.624;6.014;2022-09-09T23:18:52;97805.88;;;15.85;98.41
23118;BME280;11728;50.624;6.014;2022-09-09T23:23:55;97807.97;;;15.79;98.97
23118;BME280;11728;50.624;6.014;2022-09-09T23:28:58;97810.72;;;15.77;98.85
23118;BME280;11728;50.624;6.014;2022-09-09T23:33:59;97805.53;;;15.74;99.01
23118;BME280;11728;50.624;6.014;2022-09-09T23:39:02;97810.13;;;15.72;99.12
23118;BME280;11728;50.624;6.014;2022-09-09T23:44:03;97815.34;;;15.74;99.01
23118;BME280;11728;50.624;6.014;2022-09-09T23:49:04;97820.81;;;15.71;98.95
23118;BME280;11728;50.624;6.014;2022-09-09T23:54:07;97816.50;;;15.68;99.18
23118;BME280;11728;50.624;6.014;2022-09-09T23:59:09;97826.13;;;15.71;99.15
